KSMFKFAT

Guest
Details From KSMF - Sacramento Intl
To KFAT - Fresno Air Terminal
Flight Number -
Tags generated
Created
Modified
Stats Distance 146 nm / 270 km
Max Altitude 8,800 ft / 2,682 m
Waypoints 6
Social Downloads 0
Likes 0
Share VATSIM

Download

Looking for another format? Having issues loading an existing format? Contact us
Advertisement - Login to hide

Notes

Basic altitude profile: - Ascent Rate: 2500ft/min - Ascent Speed: 250kts - Cruise Altitude: 35000ft - Cruise Speed: 420kts - Descent Rate: 1500ft/min - Descent Speed: 250kts Options: - Use NATs: yes - Use PACOTS: yes - Use low airways: yes - Use high airways: yes

Route

KSMF EBTUW V23 CZQ KFAT

ID Type Via Altitude Latitude Longitude Leg Dist Tot Dist Heading (true) Name
O KSMF APT - 0 ft / 0 m 38.69543˚ -121.59077˚ - 0 nm - Sacramento Intl
EBTUW FIX - 8,800 ft / 2,682 m 37.32313˚ -120.24755˚ 104 nm 104 nm 142° / 143° -
LAPOW FIX V23 (AWY-LO) 6,800 ft / 2,073 m 37.19785˚ -120.12347˚ 9 nm 113 nm 142° / 142° -
BEREN FIX V23 (AWY-LO) 4,400 ft / 1,341 m 37.04981˚ -119.97747˚ 11 nm 124 nm 142° / 142° -
CZQ VOR V23 (AWY-LO) 2,100 ft / 640 m 36.88433˚ -119.81514˚ 12 nm 137 nm 142° / 142° CLOVIS VORTAC
O KFAT APT - 0 ft / 0 m 36.77651˚ -119.71897˚ 7 nm 145 nm 144° / 145° Fresno Air Terminal

Altitude Profile

Advertisement - Login to hide

KSMF

Details ICAO KSMF (SMF)
Name Sacramento Intl
Region United States
Timezone America/Los_Angeles (UTC-7.0)
Stats Elevation 27 ft / 8 m (AMSL)
Location 38.695431° -121.590769°
Runways 2
Magnetic Variation 13.529° E

METAR

KSMF 240953Z 14008KT 10SM CLR 11/09 A2994 RMK AO2 SLP139 T01110089

Decode

TAF

KSMF 240529Z 2406/2506 17012KT P6SM FEW250 FM241800 17008KT P6SM SCT050 SCT250 FM250300 18014KT P6SM SCT050 OVC100

Decode

Departure Runways

ID Width Length Bearing (true) Bearing (mag) Surface Threshold Offset Overrun Length
16L 151 ft / 46 m 8,618 ft / 2,627 m 180.73° 167.20° Concrete 499 ft / 152 m 256 ft / 78 m
16R 151 ft / 46 m 8,614 ft / 2,626 m 180.75° 167.22° Asphalt 499 ft / 152 m 171 ft / 52 m
34L 151 ft / 46 m 8,614 ft / 2,626 m 0.75° 347.22° Asphalt 499 ft / 152 m 157 ft / 48 m
34R 151 ft / 46 m 8,618 ft / 2,627 m 0.73° 347.20° Concrete 499 ft / 152 m 262 ft / 80 m

KFAT

Details ICAO KFAT (FAT)
Name Fresno Air Terminal
Region United States
Timezone America/Los_Angeles (UTC-7.0)
Stats Elevation 335 ft / 102 m (AMSL)
Location 36.776514° -119.718966°
Runways 2
Magnetic Variation 12.790° E

METAR

KFAT 240953Z 31009KT 10SM CLR 15/09 A2992 RMK AO2 SLP129 T01500094

Decode

TAF

TAF KFAT 240520Z 2406/2506 31010KT P6SM SCT200= TAF KGDV 240520Z 2406/2506 VRB03KT P6SM SCT110 FM241200 23005KT P6SM BKN030 FM241500 25009KT P6SM SCT021 FM242200 28012KT P6SM SCT060 FM250300 26006KT P6SM FEW100

Decode

Destination Runways

ID Width Length Bearing (true) Bearing (mag) Surface Threshold Offset Overrun Length
11L 150 ft / 46 m 9,242 ft / 2,817 m 125.47° 112.68° Asphalt 0 ft / 0 m 1,066 ft / 325 m
11R 150 ft / 46 m 8,010 ft / 2,441 m 125.49° 112.70° Asphalt 0 ft / 0 m 1,001 ft / 305 m
29L 150 ft / 46 m 8,010 ft / 2,441 m 305.50° 292.71° Asphalt 0 ft / 0 m 1,001 ft / 305 m
29R 150 ft / 46 m 9,242 ft / 2,817 m 305.49° 292.70° Asphalt 312 ft / 95 m 850 ft / 259 m

Approach Navaids

Runway Type Ident Frequency Range Bearing (true) Bearing (mag) Slope Elevation
11L Localiser IRPW 111.30 MHz 18 nm / 33 km 125.49° 112.70° - 333 ft / 101 m (AMSL)
11L DME IRPW 111.30 MHz 18 nm / 33 km - - - 336 ft / 102 m (AMSL)
29R Localiser IFAT 111.30 MHz 18 nm / 33 km 305.48° 292.68° - 331 ft / 101 m (AMSL)
29R Glidescope IFAT 111.30 MHz 10 nm / 19 km 305.48° 292.69° 3.00° 332 ft / 101 m (AMSL)
29R DME IFAT 111.30 MHz 18 nm / 33 km - - - 347 ft / 106 m (AMSL)

Popular Alternatives